createdAt,value
2022-10-23T00:02:27.455Z,29.10
2022-10-23T00:12:40.655Z,29.80
2022-10-23T00:22:53.435Z,28.80
2022-10-23T00:33:06.446Z,26.30
2022-10-23T00:43:26.450Z,26.80
2022-10-23T00:53:39.461Z,25.70
2022-10-23T01:03:52.481Z,26.00
2022-10-23T01:14:14.472Z,26.00
2022-10-23T01:25:05.479Z,30.30
2022-10-23T01:35:38.474Z,29.90
2022-10-23T01:45:54.502Z,28.80
2022-10-23T01:56:15.512Z,28.70
2022-10-23T02:06:28.549Z,31.90
2022-10-23T02:16:52.536Z,32.70
2022-10-23T02:27:08.506Z,34.00
2022-10-23T02:48:00.556Z,33.50
2022-10-23T02:58:24.539Z,31.60
2022-10-23T03:08:37.567Z,26.30
2022-10-23T03:18:50.555Z,26.30
2022-10-23T03:29:03.562Z,28.20
2022-10-23T03:39:16.524Z,31.50
2022-10-23T03:49:29.579Z,35.90
2022-10-23T03:59:42.590Z,37.50
2022-10-23T04:09:55.602Z,37.90
2022-10-23T04:20:08.610Z,38.10
2022-10-23T04:30:21.586Z,34.20
2022-10-23T04:40:34.610Z,34.20
2022-10-23T04:50:47.610Z,31.00
2022-10-23T05:01:07.750Z,32.10
2022-10-23T05:11:20.643Z,36.30
2022-10-23T05:21:35.653Z,40.50
2022-10-23T05:31:48.646Z,37.60
2022-10-23T05:42:02.643Z,36.10
2022-10-23T05:52:18.667Z,41.10
2022-10-23T06:02:30.726Z,32.95
2022-10-23T06:12:43.677Z,31.90
2022-10-23T06:22:56.701Z,31.80
2022-10-23T06:33:09.684Z,28.70
2022-10-23T06:43:22.707Z,34.60
2022-10-23T06:53:35.697Z,31.60
2022-10-23T07:03:48.716Z,29.00
2022-10-23T07:14:01.712Z,28.30
2022-10-23T07:24:14.737Z,28.30
2022-10-23T07:34:27.744Z,26.90
2022-10-23T07:44:41.735Z,26.20
2022-10-23T07:54:54.751Z,23.00
2022-10-23T08:05:07.742Z,22.00
2022-10-23T08:15:20.763Z,25.10
2022-10-23T08:25:39.768Z,25.10
2022-10-23T08:35:52.788Z,24.80
2022-10-23T08:46:12.799Z,25.60
2022-10-23T08:56:35.787Z,25.30
2022-10-23T09:07:12.821Z,27.20
2022-10-23T09:17:34.810Z,30.00
2022-10-23T09:27:56.259Z,29.60
2022-10-23T09:38:09.836Z,27.50
2022-10-23T09:48:31.843Z,29.80
2022-10-23T09:58:47.830Z,21.10
2022-10-23T10:09:03.843Z,20.30
2022-10-23T10:19:30.946Z,17.80
2022-10-23T10:30:01.882Z,16.70
2022-10-23T10:40:33.849Z,12.40
2022-10-23T10:51:02.893Z,11.60
2022-10-23T11:01:36.002Z,11.30
2022-10-23T11:11:48.947Z,10.30
2022-10-23T11:22:15.926Z,10.40
2022-10-23T11:32:54.878Z,8.80
2022-10-23T11:43:01.155Z,8.00
2022-10-23T11:53:14.005Z,9.20
2022-10-23T12:03:24.030Z,10.00
2022-10-23T12:13:32.106Z,8.40
2022-10-23T12:24:04.335Z,8.50
2022-10-23T12:34:57.089Z,8.40
2022-10-23T12:45:07.279Z,8.30
2022-10-23T12:55:15.327Z,9.10
2022-10-23T13:05:21.808Z,8.40
2022-10-23T13:15:44.313Z,6.80
2022-10-23T13:26:33.860Z,6.50
2022-10-23T13:36:58.100Z,6.60
2022-10-23T13:47:04.416Z,6.40
2022-10-23T13:57:16.310Z,6.40
2022-10-23T14:07:22.579Z,5.90
2022-10-23T14:17:28.903Z,6.10
2022-10-23T14:27:35.173Z,6.60
2022-10-23T14:37:41.700Z,7.90
2022-10-23T14:47:48.203Z,7.70
2022-10-23T14:57:57.426Z,8.20
2022-10-23T15:08:03.720Z,10.70
2022-10-23T15:18:09.974Z,13.80
2022-10-23T15:28:16.296Z,12.20
2022-10-23T15:38:23.664Z,11.60
2022-10-23T15:48:29.927Z,13.80
2022-10-23T15:58:36.201Z,26.50
2022-10-23T16:08:42.730Z,18.80
2022-10-23T16:18:49.362Z,21.00
2022-10-23T16:28:58.542Z,26.50
2022-10-23T16:39:05.009Z,26.70
2022-10-23T16:49:11.287Z,34.90
2022-10-23T16:59:17.605Z,37.80
2022-10-23T17:09:24.767Z,42.90
2022-10-23T17:19:44.670Z,35.80
2022-10-23T17:29:52.123Z,27.40
2022-10-23T17:40:01.270Z,24.20
2022-10-23T17:50:10.622Z,30.70
2022-10-23T18:00:17.378Z,36.80
2022-10-23T18:10:23.632Z,41.30
2022-10-23T18:20:29.983Z,36.50
2022-10-23T18:30:39.443Z,35.40
2022-10-23T18:40:46.096Z,37.00
2022-10-23T18:50:52.731Z,38.60
2022-10-23T19:00:59.151Z,37.20
2022-10-23T19:11:08.179Z,29.60
2022-10-23T19:21:14.694Z,37.40
2022-10-23T19:31:20.957Z,30.80
2022-10-23T19:41:27.466Z,29.10
2022-10-23T19:51:33.980Z,32.70
2022-10-23T20:01:43.889Z,33.70
2022-10-23T20:11:52.934Z,33.50
2022-10-23T20:21:59.199Z,31.10
2022-10-23T20:32:05.605Z,31.50
2022-10-23T20:42:11.869Z,38.40
2022-10-23T20:52:18.176Z,46.10
2022-10-23T21:02:24.588Z,41.90
2022-10-23T21:12:30.986Z,40.80
2022-10-23T21:22:37.286Z,43.90
2022-10-23T21:32:43.577Z,58.20
2022-10-23T21:42:49.839Z,53.40
2022-10-23T21:52:56.140Z,51.80
2022-10-23T22:03:02.864Z,49.60
2022-10-23T22:13:09.164Z,56.40
2022-10-23T22:23:15.434Z,54.20
2022-10-23T22:33:21.715Z,50.80
2022-10-23T22:43:27.983Z,52.30
2022-10-23T22:53:34.667Z,51.70
2022-10-23T23:03:41.234Z,50.40
2022-10-23T23:13:48.182Z,50.30
2022-10-23T23:23:54.635Z,50.20
2022-10-23T23:34:00.916Z,50.30
2022-10-23T23:44:07.225Z,48.90
2022-10-23T23:54:13.486Z,51.40
